createdAt,value
2017-12-02T00:00:26.562Z,934.7
2017-12-02T00:01:27.894Z,934.7
2017-12-02T00:02:29.167Z,934.8
2017-12-02T00:03:31.290Z,934.8
2017-12-02T00:04:32.523Z,934.7
2017-12-02T00:05:34.197Z,934.8
2017-12-02T00:06:37.003Z,934.7
2017-12-02T00:07:38.337Z,934.7
2017-12-02T00:08:39.599Z,934.7
2017-12-02T00:09:40.874Z,934.7
2017-12-02T00:10:42.398Z,934.8
2017-12-02T00:11:43.652Z,934.8
2017-12-02T00:12:44.929Z,934.8
2017-12-02T00:13:46.267Z,934.9
2017-12-02T00:14:47.527Z,934.9
2017-12-02T00:15:49.075Z,935.8
2017-12-02T00:16:52.450Z,935
2017-12-02T00:17:53.688Z,934.9
2017-12-02T00:18:54.956Z,935
2017-12-02T00:19:56.255Z,935
2017-12-02T00:20:57.557Z,935.3
2017-12-02T00:21:58.790Z,935
2017-12-02T00:23:05.606Z,934.9
2017-12-02T00:25:29.699Z,936.1
2017-12-02T00:26:32.081Z,927.2
2017-12-02T00:27:34.642Z,935
2017-12-02T00:28:35.930Z,934.9
2017-12-02T00:29:37.168Z,935.1
2017-12-02T00:30:44.157Z,935.1
2017-12-02T00:31:46.097Z,935.1
2017-12-02T00:32:52.831Z,935.2
2017-12-02T00:33:53.993Z,936.2
2017-12-02T00:34:55.342Z,935.1
2017-12-02T00:51:20.389Z,935.5
2017-12-02T00:52:23.103Z,935.5
2017-12-02T00:53:24.376Z,935.7
2017-12-02T00:54:25.684Z,935.6
2017-12-02T00:55:26.955Z,935.5
2017-12-02T00:56:28.608Z,935.4
2017-12-02T00:57:29.838Z,935.6
2017-12-02T00:58:31.135Z,935.6
2017-12-02T00:59:32.392Z,935.5
2017-12-02T01:00:33.698Z,935.7
2017-12-02T01:01:35.236Z,936.5
2017-12-02T01:02:37.945Z,935.5
2017-12-02T01:03:39.226Z,936.5
2017-12-02T01:04:40.533Z,935.7
2017-12-02T01:05:41.818Z,935.6
2017-12-02T01:06:43.207Z,936.6
2017-12-02T01:07:44.513Z,935.7
2017-12-02T01:08:45.750Z,935.8
2017-12-02T01:09:46.925Z,935.7
2017-12-02T01:10:48.324Z,935.8
2017-12-02T01:11:49.686Z,936.7
2017-12-02T01:12:52.307Z,935.8
2017-12-02T01:13:53.575Z,935.8
2017-12-02T01:14:54.932Z,936.7
2017-12-02T01:15:56.360Z,935.8
2017-12-02T01:16:57.695Z,935.8
2017-12-02T01:17:59.026Z,936.2
2017-12-02T01:19:00.341Z,935.8
2017-12-02T01:20:01.579Z,935.9
2017-12-02T01:21:02.920Z,935.8
2017-12-02T01:22:04.260Z,935.8
2017-12-02T01:23:06.842Z,935.8
2017-12-02T01:24:08.184Z,935.9
2017-12-02T01:25:09.468Z,935.9
2017-12-02T01:26:10.658Z,935.8
2017-12-02T01:27:12.270Z,935.9
2017-12-02T01:28:13.503Z,935.8
2017-12-02T01:29:14.851Z,935.8
2017-12-02T01:30:16.173Z,936
2017-12-02T01:31:17.507Z,936
2017-12-02T01:32:18.863Z,936.9
2017-12-02T01:33:21.647Z,936
2017-12-02T01:34:22.953Z,936
2017-12-02T01:35:24.353Z,936
2017-12-02T01:36:25.623Z,935.9
2017-12-02T01:37:27.059Z,936
2017-12-02T01:38:28.406Z,936
2017-12-02T01:39:29.731Z,936
2017-12-02T01:40:31.082Z,936
2017-12-02T01:41:32.403Z,936.9
2017-12-02T01:42:33.778Z,936
2017-12-02T01:43:36.956Z,937
2017-12-02T01:44:38.203Z,936
2017-12-02T01:45:39.364Z,936
2017-12-02T01:46:40.664Z,936
2017-12-02T01:47:42.221Z,935.9
2017-12-02T01:48:44.772Z,936.9
2017-12-02T01:49:46.937Z,929.1
2017-12-02T01:50:48.180Z,936.9
2017-12-02T01:51:49.374Z,936.9
2017-12-02T01:52:50.726Z,935.9
2017-12-02T01:53:53.566Z,936
2017-12-02T01:54:54.867Z,936
2017-12-02T01:55:56.108Z,935.9
2017-12-02T01:56:57.337Z,936.9
2017-12-02T01:57:58.650Z,936
2017-12-02T01:59:00.698Z,936
2017-12-02T02:00:01.970Z,936
2017-12-02T02:01:03.281Z,936
2017-12-02T02:02:04.604Z,936
2017-12-02T02:03:06.002Z,936
2017-12-02T02:04:08.601Z,937
2017-12-02T02:05:09.938Z,936.1
2017-12-02T02:06:11.229Z,936
2017-12-02T02:07:12.467Z,936
2017-12-02T02:08:14.009Z,936
2017-12-02T02:09:15.273Z,936
2017-12-02T02:10:16.610Z,936
2017-12-02T02:11:17.914Z,936
2017-12-02T02:12:19.188Z,935.9
2017-12-02T02:13:20.561Z,936
2017-12-02T02:14:23.141Z,936.1
2017-12-02T02:15:24.402Z,935.9
2017-12-02T02:16:25.686Z,936
2017-12-02T02:17:27.001Z,929.7
2017-12-02T02:18:28.567Z,936
2017-12-02T02:19:29.860Z,937
2017-12-02T02:20:31.155Z,936
2017-12-02T02:21:32.352Z,936
2017-12-02T02:22:33.598Z,936
2017-12-02T02:23:34.942Z,936
2017-12-02T02:24:37.671Z,936
2017-12-02T02:25:38.945Z,936
2017-12-02T02:26:40.290Z,937
2017-12-02T02:27:41.526Z,936.1
2017-12-02T02:28:42.827Z,936
2017-12-02T02:29:44.140Z,936.1
2017-12-02T02:30:45.531Z,936
2017-12-02T02:31:47.572Z,936.1
2017-12-02T02:32:48.870Z,936.1
2017-12-02T02:33:50.472Z,936.1
2017-12-02T02:34:53.061Z,936.2
2017-12-02T02:35:54.341Z,937.1
2017-12-02T02:36:55.672Z,936.2
2017-12-02T02:37:56.948Z,936.3
2017-12-02T02:38:58.309Z,936.2
2017-12-02T02:39:59.650Z,936.2
2017-12-02T02:41:01.040Z,936.3
2017-12-02T02:42:02.417Z,936.3
2017-12-02T02:43:03.697Z,936.2
2017-12-02T02:44:05.003Z,936.3
2017-12-02T02:45:07.697Z,936.3
2017-12-02T02:46:08.967Z,936.3
2017-12-02T02:47:10.339Z,937.3
2017-12-02T02:48:11.572Z,936.3
2017-12-02T02:49:12.926Z,937.3
2017-12-02T02:50:14.186Z,936.3
2017-12-02T02:51:15.647Z,936.3
2017-12-02T02:52:16.918Z,936.4
2017-12-02T02:53:18.154Z,936.4
2017-12-02T02:54:20.524Z,936.3
2017-12-02T02:55:23.313Z,936.4
2017-12-02T02:56:24.607Z,936.4
2017-12-02T02:57:25.956Z,936.8
2017-12-02T02:58:27.213Z,936.3
2017-12-02T02:59:28.748Z,936.4
2017-12-02T03:00:30.023Z,936.3
2017-12-02T03:01:31.349Z,937.3
2017-12-02T03:02:32.594Z,936.4
2017-12-02T03:03:34.372Z,936.3
2017-12-02T03:04:35.903Z,937.3
2017-12-02T03:05:38.472Z,936.4
2017-12-02T03:06:39.728Z,937.3
2017-12-02T03:07:41.060Z,936.4
2017-12-02T03:08:42.456Z,936.3
2017-12-02T03:09:43.857Z,936.4
2017-12-02T03:10:45.188Z,936.3
2017-12-02T03:11:46.476Z,936.4
2017-12-02T03:12:47.782Z,936.3
2017-12-02T03:13:48.985Z,936.4
2017-12-02T03:14:50.246Z,937.4
2017-12-02T03:15:52.798Z,936.3
2017-12-02T03:16:54.162Z,936.3
2017-12-02T03:17:55.476Z,937.3
2017-12-02T03:18:56.704Z,937.3
2017-12-02T03:19:58.067Z,936.4
2017-12-02T03:20:59.335Z,936.5
2017-12-02T03:22:00.588Z,936.4
2017-12-02T03:23:01.817Z,936.4
2017-12-02T03:24:03.183Z,936.5
2017-12-02T03:25:04.431Z,936.4
2017-12-02T03:26:07.133Z,936.5
2017-12-02T03:27:08.494Z,937.4
2017-12-02T03:28:09.797Z,936.5
2017-12-02T03:29:11.019Z,936.5
2017-12-02T03:30:12.487Z,929
2017-12-02T03:31:13.742Z,936.6
2017-12-02T03:32:15.715Z,936.6
2017-12-02T03:33:16.969Z,936.7
2017-12-02T03:34:18.231Z,936.6
2017-12-02T03:35:19.794Z,936.6
2017-12-02T03:36:22.413Z,936.6
2017-12-02T03:37:23.722Z,937.6
2017-12-02T03:38:24.974Z,936.7
2017-12-02T03:39:27.220Z,936.6
2017-12-02T03:40:28.844Z,936.7
2017-12-02T03:41:30.203Z,937.6
2017-12-02T03:42:31.460Z,936.7
2017-12-02T03:43:32.713Z,937.7
2017-12-02T03:44:34.955Z,936.8
2017-12-02T03:45:36.321Z,936.8
2017-12-02T03:46:38.990Z,936.8
2017-12-02T03:47:40.243Z,936.9
2017-12-02T03:48:41.624Z,937.8
2017-12-02T03:49:42.944Z,936.9
2017-12-02T03:50:44.567Z,936.9
2017-12-02T03:51:45.826Z,937
2017-12-02T03:52:47.053Z,937
2017-12-02T03:53:48.348Z,937
2017-12-02T03:54:50.242Z,935.1
2017-12-02T03:55:52.245Z,938
2017-12-02T03:56:54.851Z,936.9
2017-12-02T03:57:56.234Z,937
2017-12-02T03:58:57.541Z,938
2017-12-02T03:59:58.851Z,937
2017-12-02T04:01:00.162Z,937
2017-12-02T04:02:01.419Z,936.9
2017-12-02T04:03:02.807Z,937
2017-12-02T04:04:04.032Z,937.8
2017-12-02T04:05:05.331Z,936.9
2017-12-02T04:06:06.693Z,937
2017-12-02T04:07:09.303Z,936.9
2017-12-02T04:08:10.561Z,937
2017-12-02T04:09:11.827Z,937.9
2017-12-02T04:10:13.728Z,936.9
2017-12-02T04:11:15.093Z,936.9
2017-12-02T04:12:16.341Z,937
2017-12-02T04:13:17.741Z,937.9
2017-12-02T04:14:19.040Z,937
2017-12-02T04:15:20.308Z,936.9
2017-12-02T04:16:21.739Z,937
2017-12-02T04:17:25.078Z,937
2017-12-02T04:18:26.289Z,937
2017-12-02T04:19:27.570Z,937.8
2017-12-02T04:20:28.817Z,937
2017-12-02T04:21:30.411Z,937
2017-12-02T04:22:31.687Z,937.4
2017-12-02T04:23:32.904Z,936.9
2017-12-02T04:24:34.198Z,937.1
2017-12-02T04:25:35.487Z,937
2017-12-02T04:26:36.936Z,936.9
2017-12-02T04:27:39.573Z,937.1
2017-12-02T04:28:40.890Z,937.1
2017-12-02T04:29:42.165Z,937.1
2017-12-02T04:30:43.479Z,937
2017-12-02T04:31:44.835Z,937.1
2017-12-02T04:32:46.075Z,937.1
2017-12-02T04:33:47.368Z,937
2017-12-02T04:34:48.800Z,937
2017-12-02T04:35:50.126Z,937.1
2017-12-02T04:36:51.426Z,937
2017-12-02T04:37:54.020Z,937.1
2017-12-02T04:38:55.380Z,937
2017-12-02T04:39:56.711Z,937.1
2017-12-02T04:40:57.953Z,937
2017-12-02T04:41:59.240Z,937.1
2017-12-02T04:43:00.484Z,937.1
2017-12-02T04:44:01.702Z,937.1
2017-12-02T04:45:02.948Z,937.1
2017-12-02T04:46:04.245Z,937.1
2017-12-02T04:47:05.494Z,937.2
2017-12-02T04:48:08.059Z,937.1
2017-12-02T04:49:09.320Z,937.2
2017-12-02T04:50:10.675Z,937.1
2017-12-02T04:51:11.992Z,937.1
2017-12-02T04:52:13.399Z,938.1
2017-12-02T04:53:14.709Z,929.2
2017-12-02T04:54:16.084Z,937.1
2017-12-02T04:55:17.399Z,937.5
2017-12-02T04:56:18.839Z,937.1
2017-12-02T04:57:20.352Z,937.1
2017-12-02T04:58:22.930Z,937.2
2017-12-02T04:59:24.369Z,937.1
2017-12-02T05:00:25.596Z,937.1
2017-12-02T05:01:26.887Z,937.2
2017-12-02T05:02:28.420Z,930
2017-12-02T05:03:30.258Z,937.1
2017-12-02T05:04:31.633Z,937.2
2017-12-02T05:05:32.842Z,938.2
2017-12-02T05:06:34.271Z,937.1
2017-12-02T05:07:35.786Z,937.2
2017-12-02T05:08:38.360Z,937.3
2017-12-02T05:09:39.599Z,937.4
2017-12-02T05:10:40.869Z,937.3
2017-12-02T05:11:42.249Z,937.3
2017-12-02T05:12:43.592Z,937.3
2017-12-02T05:13:44.856Z,937.4
2017-12-02T05:14:46.137Z,937.4
2017-12-02T05:15:47.435Z,937.5
2017-12-02T05:16:48.670Z,938.4
2017-12-02T05:17:49.929Z,938.5
2017-12-02T05:18:52.524Z,937.4
2017-12-02T05:19:53.838Z,937.5
2017-12-02T05:20:55.135Z,937.4
2017-12-02T05:21:56.471Z,937.4
2017-12-02T05:22:57.780Z,938.4
2017-12-02T05:23:59.686Z,937.3
2017-12-02T05:25:00.996Z,938.4
2017-12-02T05:26:02.255Z,937.4
2017-12-02T05:27:03.570Z,938.4
2017-12-02T05:28:05.080Z,937.5
2017-12-02T05:29:07.511Z,937.4
2017-12-02T05:30:08.781Z,937.5
2017-12-02T05:31:10.825Z,938.4
2017-12-02T05:32:12.033Z,937.6
2017-12-02T05:33:13.590Z,937.5
2017-12-02T05:34:14.903Z,937.5
2017-12-02T05:35:16.902Z,937.5
2017-12-02T05:36:18.279Z,937.5
2017-12-02T05:37:19.636Z,937.4
2017-12-02T05:38:20.947Z,937.4
2017-12-02T05:39:24.039Z,937.5
2017-12-02T05:40:25.257Z,937.5
2017-12-02T05:41:26.504Z,937.5
2017-12-02T05:42:27.788Z,938.4
2017-12-02T05:43:29.104Z,937.6
2017-12-02T05:44:30.457Z,937.5
2017-12-02T05:45:31.701Z,937.6
2017-12-02T05:46:32.984Z,937.6
2017-12-02T05:47:34.263Z,937.9
2017-12-02T05:48:35.938Z,937.5
2017-12-02T05:49:38.661Z,937.6
2017-12-02T05:50:39.994Z,937.6
2017-12-02T05:51:41.272Z,938.6
2017-12-02T05:52:42.565Z,938.5
2017-12-02T05:53:44.224Z,937.6
2017-12-02T05:54:45.536Z,938.6
2017-12-02T05:55:46.831Z,937.6
2017-12-02T05:56:48.087Z,937.7
2017-12-02T05:57:49.342Z,937.6
2017-12-02T05:58:50.878Z,937.6
2017-12-02T05:59:53.520Z,938.6
2017-12-02T06:00:54.802Z,937.6
2017-12-02T06:01:56.130Z,937.6
2017-12-02T06:02:57.418Z,938.6
2017-12-02T06:03:59.081Z,937.7
2017-12-02T06:05:00.330Z,937.7
2017-12-02T06:06:01.635Z,937.7
2017-12-02T06:07:02.862Z,937.7
2017-12-02T06:08:04.118Z,938.8
2017-12-02T06:09:05.848Z,937.7
2017-12-02T06:10:08.392Z,937.7
2017-12-02T06:11:09.776Z,937.8
2017-12-02T06:12:11.012Z,938.7
2017-12-02T06:13:12.280Z,937.8
2017-12-02T06:14:13.978Z,938.8
2017-12-02T06:15:15.247Z,937.8
2017-12-02T06:16:16.540Z,938.6
2017-12-02T06:17:17.781Z,937.8
2017-12-02T06:18:19.158Z,937.9
2017-12-02T06:19:21.493Z,938.8
2017-12-02T06:20:24.157Z,937.8
2017-12-02T06:21:25.474Z,938.9
2017-12-02T06:22:26.770Z,937.9
2017-12-02T06:23:28.058Z,937.9
2017-12-02T06:24:29.458Z,937.9
2017-12-02T06:25:30.757Z,937.8
2017-12-02T06:26:32.091Z,938
2017-12-02T06:27:33.468Z,938
2017-12-02T06:28:34.806Z,937.9
2017-12-02T06:29:36.183Z,938.9
2017-12-02T06:30:38.831Z,938
2017-12-02T06:31:40.089Z,937.9
2017-12-02T06:32:42.091Z,939
2017-12-02T06:33:43.424Z,939
2017-12-02T06:34:44.815Z,938.1
2017-12-02T06:35:46.058Z,938
2017-12-02T06:36:47.426Z,938
2017-12-02T06:37:48.778Z,938.1
2017-12-02T06:38:50.026Z,938
2017-12-02T06:39:51.291Z,938.1
2017-12-02T06:40:53.826Z,939.2
2017-12-02T06:41:55.070Z,930.4
2017-12-02T06:42:57.076Z,938.2
2017-12-02T06:43:58.372Z,939.1
2017-12-02T06:44:59.788Z,938.3
2017-12-02T06:46:01.030Z,939.2
2017-12-02T06:47:02.409Z,939.1
2017-12-02T06:48:03.614Z,938.2
2017-12-02T06:49:04.937Z,939.4
2017-12-02T06:50:06.327Z,930.3
2017-12-02T06:51:09.011Z,938.3
2017-12-02T06:52:10.298Z,938.2
2017-12-02T06:53:11.494Z,938.2
2017-12-02T06:54:12.678Z,938.2
2017-12-02T06:55:14.058Z,938.3
2017-12-02T06:56:15.303Z,939.2
2017-12-02T06:57:16.622Z,938.3
2017-12-02T06:58:17.963Z,938.3
2017-12-02T06:59:19.158Z,938.3
2017-12-02T07:00:20.439Z,938.4
2017-12-02T07:01:23.045Z,938.4
2017-12-02T07:02:24.399Z,939.4
2017-12-02T07:03:25.727Z,938.4
2017-12-02T07:04:27.017Z,938.5
2017-12-02T07:05:28.313Z,931.4
2017-12-02T07:06:29.640Z,938.5
2017-12-02T07:07:30.930Z,938.5
2017-12-02T07:08:32.332Z,938.3
2017-12-02T07:09:33.717Z,939.4
2017-12-02T07:10:35.303Z,938.4
2017-12-02T07:11:37.943Z,938.3
2017-12-02T07:12:39.144Z,938.4
2017-12-02T07:13:40.398Z,938.4
2017-12-02T07:14:41.742Z,938.4
2017-12-02T07:15:43.914Z,939.5
2017-12-02T07:16:45.225Z,939.5
2017-12-02T07:17:46.484Z,939.5
2017-12-02T07:18:47.793Z,938.5
2017-12-02T07:19:49.132Z,938.5
2017-12-02T07:20:50.690Z,938.6
2017-12-02T07:21:53.339Z,938.5
2017-12-02T07:22:54.680Z,938.5
2017-12-02T07:23:56.011Z,938.5
2017-12-02T07:24:58.295Z,938.6
2017-12-02T07:25:59.853Z,938.5
2017-12-02T07:27:01.216Z,938.5
2017-12-02T07:28:02.495Z,938.6
2017-12-02T07:29:03.777Z,939.5
2017-12-02T07:30:05.156Z,938.6
2017-12-02T07:31:06.521Z,938.6
2017-12-02T07:32:09.152Z,938.5
2017-12-02T07:33:10.521Z,938.5
2017-12-02T07:34:11.839Z,939.5
2017-12-02T07:35:13.072Z,938.5
2017-12-02T07:36:14.453Z,938.5
2017-12-02T07:37:15.731Z,938.6
2017-12-02T07:38:16.967Z,938.8
2017-12-02T07:39:18.248Z,938.6
2017-12-02T07:40:19.569Z,938.6
2017-12-02T07:41:20.938Z,938.5
2017-12-02T07:42:24.129Z,938.5
2017-12-02T07:43:25.494Z,938.6
2017-12-02T07:44:26.714Z,938.5
2017-12-02T07:45:27.976Z,938.7
2017-12-02T07:46:29.352Z,938.6
2017-12-02T07:47:31.333Z,938.6
2017-12-02T07:48:38.071Z,938.6
2017-12-02T07:49:39.344Z,938.9
2017-12-02T07:50:40.690Z,938.5
2017-12-02T07:51:42.051Z,938.6
2017-12-02T07:52:45.379Z,939.5
2017-12-02T07:53:46.571Z,938.5
2017-12-02T07:54:47.906Z,938.6
2017-12-02T07:55:49.223Z,938.6
2017-12-02T07:56:50.584Z,938.7
2017-12-02T07:57:51.829Z,938.7
2017-12-02T07:58:53.115Z,938.8
2017-12-02T07:59:54.381Z,938.7
2017-12-02T08:00:55.574Z,938.8
2017-12-02T08:01:56.940Z,939.7
2017-12-02T08:03:05.210Z,938.8
2017-12-02T08:04:12.033Z,931.6
2017-12-02T08:05:13.338Z,938.7
2017-12-02T08:06:14.671Z,938.8
2017-12-02T08:07:15.962Z,939.8
2017-12-02T08:08:17.241Z,939.8
2017-12-02T08:09:18.617Z,938.8
2017-12-02T08:10:29.897Z,938.9
2017-12-02T08:11:31.092Z,938.9
2017-12-02T08:13:44.689Z,938.8
2017-12-02T08:14:46.008Z,938.8
2017-12-02T08:15:47.346Z,938.9
2017-12-02T08:16:48.773Z,938.9
2017-12-02T08:17:50.194Z,940
2017-12-02T08:18:51.430Z,939
2017-12-02T08:19:52.677Z,939
2017-12-02T08:20:54.005Z,938.9
2017-12-02T08:21:55.375Z,939
2017-12-02T08:22:56.721Z,939
2017-12-02T08:23:59.410Z,939
2017-12-02T08:25:00.808Z,940.1
2017-12-02T08:26:02.170Z,938.9
2017-12-02T08:27:03.502Z,938.9
2017-12-02T08:28:04.817Z,938.9
2017-12-02T08:29:06.118Z,939.9
2017-12-02T08:30:07.461Z,938.9
2017-12-02T08:31:08.794Z,938.9
2017-12-02T08:32:10.196Z,939
2017-12-02T08:33:11.489Z,939
2017-12-02T08:34:14.082Z,939
2017-12-02T08:35:15.933Z,939
2017-12-02T08:36:17.171Z,939
2017-12-02T08:38:25.331Z,939.2
2017-12-02T08:39:26.670Z,939
2017-12-02T08:40:28.004Z,938.9
2017-12-02T08:41:29.367Z,939
2017-12-02T08:42:30.573Z,940
2017-12-02T08:43:31.943Z,939
2017-12-02T08:44:34.725Z,939
2017-12-02T08:45:36.064Z,939
2017-12-02T08:46:37.429Z,939
2017-12-02T08:47:38.794Z,939
2017-12-02T08:48:40.167Z,939
2017-12-02T08:49:41.470Z,939.9
2017-12-02T08:50:42.748Z,939
2017-12-02T08:51:43.963Z,931.8
2017-12-02T08:52:45.215Z,939
2017-12-02T08:53:46.536Z,939
2017-12-02T08:54:49.385Z,939
2017-12-02T08:55:50.606Z,939
2017-12-02T08:56:51.955Z,939.1
2017-12-02T08:57:53.223Z,939
2017-12-02T08:58:54.576Z,939.1
2017-12-02T08:59:55.990Z,939
2017-12-02T09:00:57.326Z,939.1
2017-12-02T09:01:58.533Z,939.1
2017-12-02T09:02:59.780Z,939.1
2017-12-02T09:04:01.205Z,939.1
2017-12-02T09:05:03.883Z,939.1
2017-12-02T09:06:05.223Z,939
2017-12-02T09:07:06.432Z,939.1
2017-12-02T09:08:07.659Z,939.1
2017-12-02T09:09:08.976Z,939.2
2017-12-02T09:10:10.317Z,939.1
2017-12-02T09:11:11.668Z,939.1
2017-12-02T09:12:12.909Z,939.2
2017-12-02T09:13:14.160Z,939.1
2017-12-02T09:14:15.602Z,939.2
2017-12-02T09:15:18.126Z,939.1
2017-12-02T09:16:19.451Z,939.2
2017-12-02T09:17:20.729Z,939.1
2017-12-02T09:18:22.042Z,939.1
2017-12-02T09:19:23.379Z,940.1
2017-12-02T09:20:24.704Z,939
2017-12-02T09:21:25.993Z,940.1
2017-12-02T09:22:27.300Z,939.2
2017-12-02T09:23:28.674Z,939.1
2017-12-02T09:24:30.005Z,939.2
2017-12-02T09:25:38.315Z,940.2
2017-12-02T09:26:45.103Z,939.3
2017-12-02T09:27:46.463Z,939.2
2017-12-02T09:28:47.816Z,940.1
2017-12-02T09:29:49.152Z,939.3
2017-12-02T09:30:50.424Z,939.2
2017-12-02T09:31:51.759Z,939.6
2017-12-02T09:32:53.193Z,939.3
2017-12-02T09:33:54.511Z,939.3
2017-12-02T09:34:55.777Z,939.3
2017-12-02T09:35:58.495Z,939.6
2017-12-02T09:37:00.534Z,940.3
2017-12-02T09:38:01.954Z,940.2
2017-12-02T09:39:03.378Z,940.2
2017-12-02T09:40:04.739Z,940.2
2017-12-02T09:41:06.036Z,939.2
2017-12-02T09:42:07.198Z,939.2
2017-12-02T09:43:08.484Z,939.6
2017-12-02T09:44:09.757Z,939.2
2017-12-02T09:45:11.033Z,939.3
2017-12-02T09:46:14.669Z,939.2
2017-12-02T09:47:16.055Z,939.2
2017-12-02T09:48:17.408Z,939.2
2017-12-02T09:49:18.687Z,939.8
2017-12-02T09:50:21.898Z,940.1
2017-12-02T09:51:23.251Z,939.2
2017-12-02T09:52:29.040Z,939.2
2017-12-02T09:53:30.277Z,939.2
2017-12-02T09:55:38.624Z,939.1
2017-12-02T09:56:46.741Z,939.1
2017-12-02T09:57:52.931Z,939
2017-12-02T09:58:54.292Z,939.1
2017-12-02T09:59:55.643Z,939
2017-12-02T10:00:56.939Z,939
2017-12-02T10:01:58.321Z,940
2017-12-02T10:02:59.639Z,939.1
2017-12-02T10:04:01.034Z,939.1
2017-12-02T10:05:02.308Z,940
2017-12-02T10:06:03.528Z,939
2017-12-02T10:07:17.246Z,939
2017-12-02T10:08:18.523Z,940
2017-12-02T10:09:21.825Z,940
2017-12-02T10:10:27.147Z,939
2017-12-02T10:11:28.500Z,939
2017-12-02T10:12:29.790Z,939
2017-12-02T10:13:31.057Z,939.3
2017-12-02T10:14:32.392Z,940
2017-12-02T10:15:33.765Z,939
2017-12-02T10:16:35.397Z,939
2017-12-02T10:17:38.059Z,938.9
2017-12-02T10:18:39.342Z,939
2017-12-02T10:19:40.676Z,938.9
2017-12-02T10:20:41.908Z,939
2017-12-02T10:21:43.211Z,939
2017-12-02T10:22:44.468Z,939
2017-12-02T10:23:45.818Z,939
2017-12-02T10:24:47.079Z,939.9
2017-12-02T10:25:48.448Z,939.1
2017-12-02T10:26:49.924Z,938.9
2017-12-02T10:27:52.561Z,939
2017-12-02T10:28:53.910Z,938.9
2017-12-02T10:29:55.282Z,938.9
2017-12-02T10:30:57.439Z,938.9
2017-12-02T10:31:58.819Z,938.9
2017-12-02T10:33:01.036Z,938.9
2017-12-02T10:34:02.290Z,939.8
2017-12-02T10:35:03.555Z,938.9
2017-12-02T10:36:04.761Z,938.9
2017-12-02T10:37:06.179Z,939.8
2017-12-02T10:38:08.875Z,938.9
2017-12-02T10:39:10.244Z,938.8
2017-12-02T10:40:11.605Z,938.8
2017-12-02T10:41:13.622Z,938.8
2017-12-02T10:42:14.917Z,938.7
2017-12-02T10:43:19.111Z,938.7
2017-12-02T10:44:20.418Z,939.1
2017-12-02T10:45:21.761Z,938.7
2017-12-02T10:46:23.057Z,938.8
2017-12-02T10:47:24.393Z,938.8
2017-12-02T10:48:27.028Z,939.7
2017-12-02T10:49:28.290Z,938.8
2017-12-02T10:50:29.579Z,939.7
2017-12-02T10:51:30.896Z,938.7
2017-12-02T10:52:32.108Z,938.7
2017-12-02T10:53:33.386Z,938.8
2017-12-02T10:54:34.637Z,938.8
2017-12-02T10:55:35.924Z,938.7
2017-12-02T10:56:37.253Z,938.7
2017-12-02T10:57:38.780Z,938.7
2017-12-02T10:58:41.469Z,938.7
2017-12-02T10:59:42.798Z,938.7
2017-12-02T11:00:44.137Z,938.6
2017-12-02T11:01:45.358Z,938.7
2017-12-02T11:02:46.679Z,938.6
2017-12-02T11:03:47.997Z,938.5
2017-12-02T11:04:49.374Z,938.6
2017-12-02T11:05:50.651Z,938.5
2017-12-02T11:06:51.948Z,938.5
2017-12-02T11:07:53.341Z,938.6
2017-12-02T11:10:04.069Z,939.4
2017-12-02T11:11:05.441Z,938.5
2017-12-02T11:12:06.874Z,938.6
2017-12-02T11:13:08.182Z,938.5
2017-12-02T11:14:14.951Z,938.7
2017-12-02T11:15:16.328Z,938.5
2017-12-02T11:16:17.589Z,939.4
2017-12-02T11:17:18.847Z,938.5
2017-12-02T11:18:20.145Z,938.5
2017-12-02T11:19:22.781Z,938.5
2017-12-02T11:20:24.124Z,938.5
2017-12-02T11:21:25.464Z,939.5
2017-12-02T11:22:26.722Z,939.5
2017-12-02T11:23:28.107Z,939.5
2017-12-02T11:24:29.357Z,938.6
2017-12-02T11:25:30.760Z,938.6
2017-12-02T11:26:32.091Z,932.2
2017-12-02T11:27:33.369Z,938.7
2017-12-02T11:28:34.756Z,938.6
2017-12-02T11:29:38.024Z,939.5
2017-12-02T11:30:39.388Z,938.6
2017-12-02T11:31:40.698Z,938.5
2017-12-02T11:32:41.891Z,938.6
2017-12-02T11:33:43.452Z,938.6
2017-12-02T11:34:44.829Z,938.6
2017-12-02T11:35:46.175Z,939.5
2017-12-02T11:36:47.474Z,938.6
2017-12-02T11:37:48.737Z,939.6
2017-12-02T11:38:50.312Z,939.5
2017-12-02T11:39:52.900Z,938.7
2017-12-02T11:40:54.196Z,938.6
2017-12-02T11:41:55.482Z,938.6
2017-12-02T11:42:56.779Z,938.6
2017-12-02T11:43:58.082Z,938.6
2017-12-02T11:44:59.328Z,938.8
2017-12-02T11:46:00.573Z,938.7
2017-12-02T11:47:01.962Z,938.7
2017-12-02T11:48:03.400Z,938.6
2017-12-02T11:49:04.713Z,938.7
2017-12-02T11:50:07.376Z,938.7
2017-12-02T11:51:08.616Z,938.6
2017-12-02T11:52:09.832Z,939.6
2017-12-02T11:53:11.129Z,938.7
2017-12-02T11:54:12.410Z,938.7
2017-12-02T11:55:13.624Z,938.7
2017-12-02T11:56:14.945Z,938.7
2017-12-02T11:57:16.224Z,939.7
2017-12-02T11:58:17.558Z,938.8
2017-12-02T11:59:18.882Z,938.8
2017-12-02T12:00:21.449Z,938.7
2017-12-02T12:01:22.683Z,938.8
2017-12-02T12:02:23.917Z,938.7
2017-12-02T12:03:25.276Z,938.8
2017-12-02T12:04:26.593Z,939.7
2017-12-02T12:05:27.861Z,938.7
2017-12-02T12:06:29.079Z,938.7
2017-12-02T12:07:30.304Z,938.8
2017-12-02T12:08:31.602Z,938.7
2017-12-02T12:09:32.948Z,938.8
2017-12-02T12:10:35.444Z,938.8
2017-12-02T12:11:36.738Z,938.7
2017-12-02T12:12:38.036Z,938.8
2017-12-02T12:13:39.421Z,938.6
2017-12-02T12:14:40.785Z,938.7
2017-12-02T12:15:42.158Z,938.7
2017-12-02T12:16:43.402Z,938.8
2017-12-02T12:17:44.740Z,938.7
2017-12-02T12:18:46.102Z,938.7
2017-12-02T12:19:47.621Z,938.8
2017-12-02T12:20:50.319Z,938.8
2017-12-02T12:21:52.227Z,938.8
2017-12-02T12:22:53.649Z,938.8
2017-12-02T12:23:54.979Z,938.9
2017-12-02T12:24:56.228Z,938.8
2017-12-02T12:25:57.639Z,938.8
2017-12-02T12:26:58.937Z,938.8
2017-12-02T12:28:00.311Z,938.8
2017-12-02T12:29:01.598Z,938.8
2017-12-02T12:30:03.008Z,938.8
2017-12-02T12:31:05.729Z,939.7
2017-12-02T12:32:06.987Z,938.8
2017-12-02T12:33:08.331Z,938.8
2017-12-02T12:34:09.715Z,938.7
2017-12-02T12:35:11.028Z,938.8
2017-12-02T12:36:12.294Z,938.8
2017-12-02T12:37:13.627Z,938.8
2017-12-02T12:38:14.941Z,938.9
2017-12-02T12:39:16.175Z,938.9
2017-12-02T12:40:17.492Z,938.8
2017-12-02T12:41:20.216Z,938.8
2017-12-02T12:42:21.630Z,938.8
2017-12-02T12:43:22.969Z,938.9
2017-12-02T12:44:24.275Z,938.9
2017-12-02T12:45:25.538Z,938.8
2017-12-02T12:46:26.930Z,938.9
2017-12-02T12:47:28.257Z,938.9
2017-12-02T12:48:29.541Z,938.9
2017-12-02T12:49:30.729Z,938.8
2017-12-02T12:50:32.163Z,938.8
2017-12-02T12:51:34.723Z,938.9
2017-12-02T12:52:36.014Z,938.8
2017-12-02T12:53:37.425Z,938.9
2017-12-02T12:54:38.622Z,938.9
2017-12-02T12:55:39.891Z,938.9
2017-12-02T12:56:41.250Z,938.9
2017-12-02T12:57:42.540Z,938.9
2017-12-02T12:58:43.858Z,939.8
2017-12-02T12:59:45.089Z,938.9
2017-12-02T13:00:46.498Z,938.9
2017-12-02T13:01:49.199Z,938.9
2017-12-02T13:02:50.574Z,938.8
2017-12-02T13:03:51.838Z,938.9
2017-12-02T13:04:53.103Z,939.8
2017-12-02T13:05:54.511Z,938.9
2017-12-02T13:06:55.851Z,938.9
2017-12-02T13:07:57.197Z,938.8
2017-12-02T13:08:58.524Z,938.9
2017-12-02T13:09:59.820Z,939.8
2017-12-02T13:11:01.357Z,938.9
2017-12-02T13:12:03.971Z,939
2017-12-02T13:13:05.287Z,938.9
2017-12-02T13:14:06.532Z,939
2017-12-02T13:15:07.786Z,938.9
2017-12-02T13:16:09.270Z,938.9
2017-12-02T13:17:10.500Z,938.9
2017-12-02T13:18:11.740Z,939.4
2017-12-02T13:19:12.947Z,939.9
2017-12-02T13:20:14.306Z,938.9
2017-12-02T13:21:15.944Z,938.9
2017-12-02T13:22:18.532Z,939.9
2017-12-02T13:23:19.799Z,938.9
2017-12-02T13:24:21.248Z,938.9
2017-12-02T13:25:22.423Z,938.9
2017-12-02T13:26:24.068Z,938.9
2017-12-02T13:27:25.363Z,938.9
2017-12-02T13:28:26.686Z,939
2017-12-02T13:29:27.984Z,939
2017-12-02T13:30:29.282Z,939
2017-12-02T13:31:30.653Z,939.1
2017-12-02T13:32:33.334Z,939
2017-12-02T13:33:34.573Z,939
2017-12-02T13:34:35.857Z,939.1
2017-12-02T13:35:37.175Z,939
2017-12-02T13:36:38.506Z,939.9
2017-12-02T13:37:39.922Z,939.1
2017-12-02T13:38:41.200Z,939
2017-12-02T13:39:42.504Z,939.4
2017-12-02T13:40:43.790Z,939.1
2017-12-02T13:41:45.152Z,939.1
2017-12-02T13:42:47.546Z,939.1
2017-12-02T13:43:48.882Z,939.2